Time;durP1;ratioP1;P1;durP2;ratioP2;P2;SDS_P1;SDS_P2;PMS_P1;PMS_P2;Temp;Humidity;BMP_temperature;BMP_pressure;BME280_temperature;BME280_humidity;BME280_pressure;Samples;Min_cycle;Max_cycle;Signal;HPM_P1;HPM_P2
2021/08/20 00:02:10;;;;;;;9.88;4.60;;;;;;;;;;5013324;28;20018;-70
2021/08/20 00:04:37;;;;;;;11.30;5.20;;;;;;;;;;5013277;28;20030;-71
2021/08/20 00:07:03;;;;;;;8.43;4.45;;;;;;;;;;5013311;28;20037;-70
2021/08/20 00:09:30;;;;;;;10.38;4.57;;;;;;;;;;5013525;28;20478;-69
2021/08/20 00:11:56;;;;;;;11.85;5.22;;;;;;;;;;4995510;28;20030;-69
2021/08/20 00:14:23;;;;;;;9.13;5.03;;;;;;;;;;5013192;28;20029;-73
2021/08/20 00:16:49;;;;;;;11.18;5.05;;;;;;;;;;5013453;28;20041;-69
2021/08/20 00:19:15;;;;;;;11.90;5.45;;;;;;;;;;4995493;28;20033;-69
2021/08/20 00:21:41;;;;;;;17.23;4.78;;;17.90;81.50;;;;;;5013144;28;20445;-70
2021/08/20 00:24:07;;;;;;;9.70;4.90;;;17.70;80.60;;;;;;5013145;28;20037;-68
2021/08/20 00:26:33;;;;;;;7.60;4.47;;;17.60;80.90;;;;;;4995435;28;20398;-69
2021/08/20 00:28:59;;;;;;;19.77;5.38;;;17.60;81.20;;;;;;5013129;28;20026;-68
2021/08/20 00:31:25;;;;;;;10.27;5.13;;;17.60;81.50;;;;;;5012540;28;20046;-71
2021/08/20 00:33:51;;;;;;;16.13;5.03;;;17.50;81.50;;;;;;4995416;28;20445;-71
2021/08/20 00:36:17;;;;;;;6.38;4.47;;;17.50;81.60;;;;;;4995393;28;20137;-71
2021/08/20 00:38:43;;;;;;;9.35;4.60;;;17.50;82.00;;;;;;5013014;28;20475;-71
2021/08/20 00:41:13;;;;;;;6.00;4.60;;;17.40;81.90;;;;;;4995065;28;20038;-71
2021/08/20 00:43:46;;;;;;;8.48;4.15;;;17.40;82.60;;;;;;5012927;28;20056;-73
2021/08/20 00:46:12;;;;;;;9.77;4.63;;;17.40;82.20;;;;;;5012977;28;20026;-72
2021/08/20 00:48:39;;;;;;;11.00;4.25;;;17.30;82.80;;;;;;5013124;28;20026;-72
2021/08/20 00:51:20;;;;;;;13.32;4.55;;;17.20;82.70;;;;;;5012923;28;20026;-72
2021/08/20 00:53:47;;;;;;;7.30;4.57;;;17.20;82.90;;;;;;5012895;28;20033;-70
2021/08/20 00:56:13;;;;;;;12.32;4.97;;;17.20;83.10;;;;;;5012561;28;20251;-72
2021/08/20 00:58:39;;;;;;;11.80;4.57;;;17.10;83.00;;;;;;5013062;28;20096;-72
2021/08/20 01:01:06;;;;;;;7.63;4.63;;;17.10;83.90;;;;;;5015069;28;20033;-72
2021/08/20 01:03:33;;;;;;;9.57;4.78;;;17.20;83.30;;;;;;5016721;28;20083;-73
2021/08/20 01:05:59;;;;;;;14.02;4.30;;;17.20;83.50;;;;;;5016051;28;20030;-72
2021/08/20 01:08:27;;;;;;;10.43;4.43;;;17.20;83.90;;;;;;5016288;28;20018;-72
2021/08/20 01:10:55;;;;;;;10.95;4.20;;;17.20;84.00;;;;;;5016305;28;20041;-72
2021/08/20 01:13:21;;;;;;;6.78;4.07;;;17.10;83.50;;;;;;4998521;28;20056;-72
2021/08/20 01:15:47;;;;;;;13.02;4.30;;;17.10;83.70;;;;;;5015893;28;20036;-74
2021/08/20 01:18:22;;;;;;;7.07;4.10;;;17.10;84.00;;;;;;5016066;28;20026;-72
2021/08/20 01:20:48;;;;;;;7.97;4.88;;;17.10;84.10;;;;;;5016109;28;20029;-70
2021/08/20 01:23:14;;;;;;;8.93;4.38;;;17.00;84.10;;;;;;5016003;28;20033;-74
2021/08/20 01:25:40;;;;;;;13.40;3.95;;;;;;;;;;5016040;28;20581;-72
2021/08/20 01:28:08;;;;;;;10.63;5.20;;;;;;;;;;5015952;28;20048;-74
2021/08/20 01:30:34;;;;;;;9.23;4.47;;;;;;;;;;5015694;28;20398;-73
2021/08/20 01:33:00;;;;;;;10.80;4.20;;;;;;;;;;4998177;28;20529;-74
2021/08/20 01:35:27;;;;;;;9.95;4.35;;;;;;;;;;5015806;28;20029;-71
2021/08/20 01:37:53;;;;;;;6.05;3.95;;;;;;;;;;5016077;28;20026;-72
2021/08/20 01:40:19;;;;;;;10.38;4.93;;;;;;;;;;5015741;28;20037;-70
2021/08/20 01:42:45;;;;;;;9.27;4.32;;;;;;;;;;5015651;28;20021;-72
2021/08/20 01:45:12;;;;;;;9.48;4.30;;;;;;;;;;5015325;28;20363;-71
2021/08/20 01:47:38;;;;;;;14.07;4.75;;;;;;;;;;4997956;28;20348;-71
2021/08/20 01:50:06;;;;;;;6.18;4.32;;;17.00;84.50;;;;;;5015334;28;20532;-71
2021/08/20 01:52:32;;;;;;;8.75;4.00;;;17.00;85.10;;;;;;4997767;28;20030;-71
2021/08/20 01:54:58;;;;;;;8.00;4.18;;;17.00;85.50;;;;;;4997847;28;20030;-70
2021/08/20 01:57:24;;;;;;;8.27;4.07;;;17.00;86.00;;;;;;4997766;28;20036;-71
2021/08/20 01:59:50;;;;;;;7.30;3.80;;;17.00;85.60;;;;;;5015077;28;20061;-73
2021/08/20 02:02:16;;;;;;;9.15;4.07;;;17.00;85.20;;;;;;5015340;28;20037;-70
2021/08/20 02:04:41;;;;;;;5.47;3.88;;;17.00;85.50;;;;;;5015276;28;20062;-70
2021/08/20 02:07:07;;;;;;;11.73;4.20;;;17.00;85.70;;;;;;5015248;28;20072;-73
2021/08/20 02:09:33;;;;;;;11.77;3.70;;;16.90;85.70;;;;;;5014902;28;20025;-71
2021/08/20 02:11:59;;;;;;;9.23;4.38;;;17.00;85.90;;;;;;5014453;28;20044;-70
2021/08/20 02:14:25;;;;;;;9.65;4.85;;;16.90;85.80;;;;;;5015062;28;20036;-70
2021/08/20 02:16:51;;;;;;;8.20;3.45;;;16.80;86.00;;;;;;5015079;28;20550;-71
2021/08/20 02:19:17;;;;;;;8.57;4.95;;;16.90;86.70;;;;;;5014978;28;20034;-71
2021/08/20 02:21:42;;;;;;;11.38;4.63;;;16.80;86.50;;;;;;5014993;28;20034;-71
2021/08/20 02:24:08;;;;;;;6.72;3.80;;;16.80;86.60;;;;;;4997221;28;20122;-69
2021/08/20 02:26:34;;;;;;;9.60;3.78;;;16.80;86.50;;;;;;5014825;28;20088;-70
2021/08/20 02:29:00;;;;;;;11.25;4.30;;;16.80;86.60;;;;;;4997132;28;20034;-74
2021/08/20 02:31:26;;;;;;;13.15;4.72;;;16.80;86.80;;;;;;5014749;28;20124;-73
2021/08/20 02:33:51;;;;;;;11.18;4.40;;;16.70;86.80;;;;;;4997006;28;20057;-73
2021/08/20 02:36:17;;;;;;;8.25;4.10;;;16.70;87.20;;;;;;5014658;28;20120;-71
2021/08/20 02:38:44;;;;;;;18.02;4.40;;;;;;;;;;5014668;28;20034;-71
2021/08/20 02:41:10;;;;;;;12.40;4.32;;;16.60;86.70;;;;;;4997073;28;20018;-70
2021/08/20 02:43:35;;;;;;;11.23;3.45;;;16.50;87.20;;;;;;4996845;28;20459;-71
2021/08/20 02:46:01;;;;;;;6.78;3.80;;;;;;;;;;4996816;28;20124;-69
2021/08/20 02:48:28;;;;;;;6.50;3.45;;;;;;;;;;5014424;28;20117;-71
2021/08/20 02:50:54;;;;;;;10.60;4.25;;;;;;;;;;5014496;28;20033;-69
2021/08/20 02:53:20;;;;;;;11.52;4.63;;;;;;;;;;5014275;28;20029;-71
2021/08/20 02:55:46;;;;;;;9.52;5.22;;;;;;;;;;5014324;28;20030;-70
2021/08/20 02:58:12;;;;;;;12.07;5.15;;;;;;;;;;5014269;28;20022;-71
2021/08/20 03:00:39;;;;;;;8.25;4.97;;;;;;;;;;4996609;28;20028;-71
2021/08/20 03:03:05;;;;;;;16.02;5.50;;;;;;;;;;4996514;28;20061;-71
2021/08/20 03:05:31;;;;;;;10.20;4.70;;;;;;;;;;5014157;28;20022;-70
2021/08/20 03:07:57;;;;;;;9.75;4.72;;;;;;;;;;4996197;28;20022;-71
2021/08/20 03:10:24;;;;;;;10.32;5.15;;;;;;;;;;5013793;28;20497;-71
2021/08/20 03:12:49;;;;;;;14.35;5.35;;;16.50;86.80;;;;;;4996416;28;20030;-69
2021/08/20 03:15:15;;;;;;;16.20;5.55;;;16.30;87.00;;;;;;4996365;28;20437;-70
2021/08/20 03:17:42;;;;;;;10.07;4.75;;;16.30;87.10;;;;;;5013949;28;20109;-69
2021/08/20 03:20:08;;;;;;;14.05;4.68;;;16.20;87.00;;;;;;5013881;28;20030;-68
2021/08/20 03:22:35;;;;;;;9.98;4.10;;;16.30;87.30;;;;;;4996256;28;20030;-70
2021/08/20 03:25:01;;;;;;;8.55;4.22;;;16.20;87.30;;;;;;5012933;28;20113;-69
2021/08/20 03:27:26;;;;;;;13.57;4.38;;;16.20;86.70;;;;;;4996113;28;20117;-70
2021/08/20 03:29:52;;;;;;;8.38;4.13;;;16.20;87.30;;;;;;5013223;28;20030;-68
2021/08/20 03:32:19;;;;;;;8.73;3.85;;;16.10;88.10;;;;;;5013888;28;20057;-69
2021/08/20 03:34:44;;;;;;;6.78;4.05;;;16.10;88.20;;;;;;5013692;28;20025;-72
2021/08/20 03:37:11;;;;;;;6.05;4.00;;;;;;;;;;5013667;28;20105;-69
2021/08/20 03:39:37;;;;;;;13.90;4.40;;;;;;;;;;5013656;28;20022;-71
2021/08/20 03:42:03;;;;;;;11.82;4.60;;;;;;;;;;5013657;28;20399;-70
2021/08/20 03:44:30;;;;;;;9.40;4.50;;;;;;;;;;5013565;28;20029;-71
2021/08/20 03:46:56;;;;;;;13.75;4.70;;;;;;;;;;5013496;28;20026;-68
2021/08/20 03:49:22;;;;;;;17.30;4.80;;;;;;;;;;4995539;28;20029;-71
2021/08/20 03:51:48;;;;;;;11.07;4.93;;;16.10;88.20;;;;;;4995866;28;20377;-71
2021/08/20 03:54:14;;;;;;;10.40;4.78;;;15.80;89.00;;;;;;5013460;28;20116;-71
2021/08/20 03:56:40;;;;;;;12.25;5.07;;;15.70;89.10;;;;;;5013457;28;20030;-69
2021/08/20 03:59:06;;;;;;;10.82;5.05;;;15.60;89.30;;;;;;4995754;28;20076;-70
2021/08/20 04:01:32;;;;;;;7.25;4.78;;;15.60;89.50;;;;;;5013402;28;20034;-68
2021/08/20 04:03:58;;;;;;;13.73;5.03;;;15.60;89.80;;;;;;5013322;28;20030;-70
2021/08/20 04:06:24;;;;;;;13.98;5.45;;;15.70;89.80;;;;;;5013285;28;20109;-69
2021/08/20 04:08:49;;;;;;;13.13;4.88;;;15.60;89.30;;;;;;4995607;28;20053;-73
2021/08/20 04:11:17;;;;;;;8.55;4.55;;;15.60;89.20;;;;;;5012892;28;20049;-71
2021/08/20 04:13:42;;;;;;;9.57;4.47;;;15.70;89.60;;;;;;5013189;28;20034;-70
2021/08/20 04:16:08;;;;;;;11.63;4.80;;;15.80;89.60;;;;;;4995583;28;20026;-67
2021/08/20 04:18:35;;;;;;;19.02;5.55;;;15.80;89.60;;;;;;5013187;28;20101;-70
2021/08/20 04:21:01;;;;;;;27.38;5.95;;;15.80;89.80;;;;;;5013213;28;20026;-72
2021/08/20 04:23:27;;;;;;;31.20;6.10;;;15.80;89.90;;;;;;5013158;28;20030;-71
2021/08/20 04:25:52;;;;;;;24.27;6.45;;;15.70;89.20;;;;;;5013143;28;20037;-69
2021/08/20 04:28:18;;;;;;;33.63;6.88;;;15.80;89.20;;;;;;5013073;28;20114;-68
2021/08/20 04:30:44;;;;;;;31.48;7.82;;;15.80;89.00;;;;;;4995197;28;20060;-70
2021/08/20 04:33:10;;;;;;;25.52;6.38;;;15.70;88.90;;;;;;5012689;28;20041;-70
2021/08/20 04:35:36;;;;;;;25.90;5.50;;;15.70;89.50;;;;;;4996996;28;20030;-71
2021/08/20 04:38:02;;;;;;;22.35;5.75;;;15.80;89.70;;;;;;4999227;28;20029;-68
2021/08/20 04:40:28;;;;;;;30.75;8.10;;;15.90;89.40;;;;;;5016122;28;20030;-70
2021/08/20 04:42:53;;;;;;;26.70;6.22;;;16.00;89.30;;;;;;5017144;28;20037;-69
2021/08/20 04:45:19;;;;;;;20.80;7.70;;;16.00;89.70;;;;;;5016784;28;20021;-70
2021/08/20 04:47:46;;;;;;;22.58;6.70;;;16.00;90.00;;;;;;4999055;28;20033;-72
2021/08/20 04:50:13;;;;;;;19.92;6.85;;;15.90;89.90;;;;;;5016667;28;20026;-72
2021/08/20 04:52:40;;;;;;;22.02;7.03;;;16.00;90.30;;;;;;5016638;28;20518;-72
2021/08/20 04:55:07;;;;;;;20.48;7.63;;;15.90;90.50;;;;;;5016533;28;20018;-71
2021/08/20 04:57:32;;;;;;;15.88;6.63;;;15.90;90.60;;;;;;4998872;28;20037;-69
2021/08/20 04:59:58;;;;;;;12.75;6.35;;;15.90;90.80;;;;;;5016261;28;20022;-71
2021/08/20 05:02:31;;;;;;;10.82;6.13;;;15.90;90.90;;;;;;4998933;28;20386;-69
2021/08/20 05:04:58;;;;;;;18.25;7.05;;;15.90;91.30;;;;;;5016507;28;20033;-70
2021/08/20 05:07:27;;;;;;;16.70;6.35;;;16.00;91.10;;;;;;5016038;28;20022;-70
2021/08/20 05:09:53;;;;;;;21.23;6.30;;;16.00;91.30;;;;;;5016279;28;20112;-71
2021/08/20 05:12:19;;;;;;;12.02;5.68;;;16.10;91.10;;;;;;5016272;28;20038;-70
2021/08/20 05:14:45;;;;;;;14.80;5.88;;;16.20;91.00;;;;;;5016244;28;20488;-69
2021/08/20 05:17:10;;;;;;;15.23;5.68;;;16.20;91.00;;;;;;4998547;28;20052;-71
2021/08/20 05:19:36;;;;;;;16.20;5.35;;;16.20;91.30;;;;;;5015580;28;20030;-72
2021/08/20 05:22:02;;;;;;;17.80;5.20;;;16.30;91.20;;;;;;5016126;28;20033;-71
2021/08/20 05:24:28;;;;;;;8.52;5.22;;;16.40;91.20;;;;;;5016039;28;20032;-73
2021/08/20 05:26:54;;;;;;;12.43;5.53;;;16.50;90.90;;;;;;5015943;28;20026;-68
2021/08/20 05:29:19;;;;;;;11.00;6.05;;;16.60;90.70;;;;;;4998302;28;20552;-72
2021/08/20 05:31:45;;;;;;;14.32;6.18;;;16.60;90.80;;;;;;4994555;28;20053;-69
2021/08/20 05:34:11;;;;;;;13.07;5.53;;;16.60;90.80;;;;;;4996631;28;20057;-67
2021/08/20 05:36:37;;;;;;;11.27;4.88;;;16.70;91.20;;;;;;4994894;28;20034;-69
2021/08/20 05:39:03;;;;;;;10.32;5.47;;;16.80;91.10;;;;;;4994781;28;20192;-69
2021/08/20 05:41:28;;;;;;;9.20;6.13;;;17.00;91.10;;;;;;4996201;28;20030;-68
2021/08/20 05:43:58;;;;;;;11.65;6.35;;;17.00;91.00;;;;;;4995582;28;20471;-68
2021/08/20 05:46:24;;;;;;;15.20;5.85;;;17.10;90.50;;;;;;4993949;28;20038;-68
2021/08/20 05:48:50;;;;;;;20.30;5.60;;;17.20;90.60;;;;;;4994476;28;20038;-68
2021/08/20 05:51:16;;;;;;;19.55;5.93;;;17.20;90.90;;;;;;4995998;28;20027;-71
2021/08/20 05:53:42;;;;;;;18.05;6.65;;;17.30;90.70;;;;;;4978863;28;20027;-70
2021/08/20 05:56:08;;;;;;;19.60;6.32;;;17.50;90.70;;;;;;4976181;28;20049;-68
2021/08/20 05:58:34;;;;;;;11.48;6.30;;;17.60;89.80;;;;;;4976391;28;20456;-72
2021/08/20 06:01:00;;;;;;;13.75;6.40;;;17.80;89.30;;;;;;4990402;28;20081;-70
2021/08/20 06:03:25;;;;;;;16.65;6.60;;;17.90;88.90;;;;;;4995721;28;20030;-70
2021/08/20 06:05:51;;;;;;;21.38;6.78;;;17.90;88.40;;;;;;4994299;28;20081;-70
2021/08/20 06:08:17;;;;;;;17.08;7.15;;;18.00;87.60;;;;;;4994274;28;20133;-70
2021/08/20 06:10:47;;;;;;;23.20;7.43;;;18.20;87.20;;;;;;4995594;28;20061;-68
2021/08/20 06:13:14;;;;;;;19.15;8.23;;;18.20;88.30;;;;;;4995538;28;20085;-72
2021/08/20 06:15:41;;;;;;;19.50;7.68;;;18.30;87.80;;;;;;4977810;28;20034;-71
2021/08/20 06:18:07;;;;;;;19.33;7.20;;;18.40;86.00;;;;;;4974756;28;20057;-70
2021/08/20 06:20:32;;;;;;;17.55;7.35;;;18.50;85.90;;;;;;4974675;28;20054;-72
2021/08/20 06:22:58;;;;;;;18.98;6.93;;;18.60;86.70;;;;;;4974676;28;20035;-71
2021/08/20 06:25:24;;;;;;;12.50;7.22;;;18.70;87.60;;;;;;4975735;28;20030;-69
2021/08/20 06:27:50;;;;;;;15.13;6.80;;;18.80;86.80;;;;;;4975961;28;20376;-71
2021/08/20 06:30:16;;;;;;;12.35;7.45;;;18.90;87.60;;;;;;4980876;28;20074;-72
2021/08/20 06:32:42;;;;;;;21.25;7.78;;;;;;;;;;4977502;28;20035;-71
2021/08/20 06:35:08;;;;;;;12.00;6.78;;;;;;;;;;5011936;28;20057;-70
2021/08/20 06:37:35;;;;;;;15.25;6.75;;;;;;;;;;4996882;28;20025;-71
2021/08/20 06:40:02;;;;;;;29.77;7.85;;;;;;;;;;5014582;28;20022;-70
2021/08/20 06:42:28;;;;;;;14.90;5.80;;;;;;;;;;5014578;28;20022;-70
2021/08/20 06:44:54;;;;;;;11.57;5.97;;;;;;;;;;5014507;28;20090;-69
2021/08/20 06:47:21;;;;;;;14.63;5.38;;;;;;;;;;5014433;28;20018;-72
2021/08/20 06:49:47;;;;;;;13.68;5.60;;;;;;;;;;4996094;28;20041;-70
2021/08/20 06:52:13;;;;;;;12.25;5.07;;;;;;;;;;4996638;28;20026;-69
2021/08/20 06:54:39;;;;;;;15.68;4.82;;;;;;;;;;4996758;28;20030;-69
2021/08/20 06:57:05;;;;;;;10.98;4.25;;;;;;;;;;5013454;28;20029;-71
2021/08/20 06:59:32;;;;;;;10.27;5.00;;;;;;;;;;5013516;28;20026;-70
2021/08/20 07:01:58;;;;;;;9.80;4.05;;;;;;;;;;5014220;28;20037;-71
2021/08/20 07:04:24;;;;;;;12.45;4.20;;;19.70;82.00;;;;;;5014123;28;20513;-72
2021/08/20 07:06:52;;;;;;;9.25;4.30;;;20.50;76.20;;;;;;4996429;28;20057;-72
2021/08/20 07:09:18;;;;;;;9.65;3.78;;;20.60;76.10;;;;;;5013826;28;20030;-71
2021/08/20 07:11:44;;;;;;;11.15;4.00;;;20.70;76.40;;;;;;4996248;28;20429;-71
2021/08/20 07:14:09;;;;;;;6.35;3.53;;;20.80;75.90;;;;;;4998672;28;20459;-71
2021/08/20 07:16:36;;;;;;;13.82;4.28;;;;;;;;;;4994090;28;20073;-72
2021/08/20 07:19:01;;;;;;;7.40;3.75;;;21.00;73.80;;;;;;4994287;28;20018;-70
2021/08/20 07:21:27;;;;;;;8.27;3.05;;;;;;;;;;4993977;28;20089;-70
2021/08/20 07:23:53;;;;;;;10.23;3.58;;;21.20;73.50;;;;;;4994212;28;20105;-69
2021/08/20 07:26:22;;;;;;;7.20;3.15;;;21.40;74.00;;;;;;4994199;28;20113;-71
2021/08/20 07:28:48;;;;;;;8.93;3.53;;;21.50;73.40;;;;;;4994390;28;20057;-70
2021/08/20 07:31:14;;;;;;;10.10;3.70;;;21.60;73.20;;;;;;4972984;28;20078;-71
2021/08/20 07:33:40;;;;;;;3.53;2.70;;;21.80;73.40;;;;;;4974645;28;20035;-70
2021/08/20 07:36:06;;;;;;;6.63;3.13;;;21.90;72.50;;;;;;4974547;28;20035;-71
2021/08/20 07:38:32;;;;;;;8.70;3.45;;;22.00;71.70;;;;;;4973259;28;20106;-70
2021/08/20 07:40:58;;;;;;;11.57;3.13;;;22.10;72.40;;;;;;4974529;28;20042;-70
2021/08/20 07:43:24;;;;;;;6.00;2.95;;;22.30;72.30;;;;;;4974583;28;20034;-72
2021/08/20 07:45:49;;;;;;;6.45;3.15;;;22.50;71.70;;;;;;4974173;28;20567;-70
2021/08/20 07:48:17;;;;;;;13.23;3.22;;;22.60;70.30;;;;;;4973143;28;20118;-70
2021/08/20 07:50:46;;;;;;;8.57;2.72;;;22.80;70.20;;;;;;4974432;28;20022;-70
2021/08/20 07:53:12;;;;;;;6.63;2.70;;;22.90;67.50;;;;;;4974369;28;20137;-71
2021/08/20 07:55:38;;;;;;;4.53;2.75;;;23.00;66.80;;;;;;4972945;28;20027;-69
2021/08/20 07:58:04;;;;;;;12.07;2.75;;;23.10;66.00;;;;;;4972906;28;20079;-70
2021/08/20 08:00:31;;;;;;;6.35;3.00;;;23.20;65.60;;;;;;4974301;28;20100;-70
2021/08/20 08:02:57;;;;;;;8.27;3.17;;;23.30;65.40;;;;;;4973829;28;20384;-71
2021/08/20 08:05:24;;;;;;;5.47;2.58;;;23.50;66.70;;;;;;4972593;28;20170;-71
2021/08/20 08:07:50;;;;;;;7.15;3.00;;;23.60;65.90;;;;;;4974180;28;20034;-72
2021/08/20 08:10:17;;;;;;;5.53;2.50;;;23.80;65.20;;;;;;4977047;28;20034;-71
2021/08/20 08:12:44;;;;;;;8.63;3.10;;;24.00;64.90;;;;;;4980466;28;20034;-71
2021/08/20 08:15:11;;;;;;;8.98;3.65;;;24.10;83.00;;;;;;4980637;28;20537;-72
2021/08/20 08:17:38;;;;;;;8.55;3.85;;;24.30;76.90;;;;;;4979446;28;20502;-70
2021/08/20 08:20:06;;;;;;;8.68;4.15;;;24.50;81.80;;;;;;4980558;28;20027;-66
2021/08/20 08:22:32;;;;;;;9.10;3.00;;;24.60;70.80;;;;;;4980489;28;20479;-71
2021/08/20 08:24:58;;;;;;;9.00;3.42;;;24.60;64.00;;;;;;4979308;28;20039;-67
2021/08/20 08:27:24;;;;;;;6.28;3.42;;;24.70;64.30;;;;;;4980213;28;20122;-67
2021/08/20 08:29:50;;;;;;;7.35;3.20;;;24.90;64.20;;;;;;4980334;28;20033;-69
2021/08/20 08:32:16;;;;;;;8.07;2.58;;;25.10;64.10;;;;;;4998890;28;20482;-66
2021/08/20 08:34:42;;;;;;;8.68;2.92;;;25.30;63.00;;;;;;4999973;28;20030;-67
2021/08/20 08:37:08;;;;;;;8.85;3.28;;;25.40;63.30;;;;;;4999841;28;20105;-66
2021/08/20 08:39:34;;;;;;;12.70;4.15;;;25.60;63.20;;;;;;4982320;28;20037;-67
2021/08/20 08:42:01;;;;;;;7.38;3.25;;;25.70;62.00;;;;;;4981998;28;20068;-69
2021/08/20 08:44:27;;;;;;;6.22;3.55;;;25.80;62.20;;;;;;4999842;28;20026;-70
2021/08/20 08:46:54;;;;;;;8.35;3.13;;;25.90;62.40;;;;;;4999523;28;20422;-69
2021/08/20 08:49:22;;;;;;;10.68;3.40;;;26.00;60.00;;;;;;4982200;28;20450;-69
2021/08/20 08:51:49;;;;;;;5.85;2.80;;;26.10;60.10;;;;;;4999684;28;20027;-70
2021/08/20 08:54:15;;;;;;;8.43;3.75;;;26.30;60.60;;;;;;4999757;28;20045;-68
2021/08/20 08:56:45;;;;;;;5.75;2.72;;;26.30;58.40;;;;;;4982148;28;20026;-68
2021/08/20 08:59:11;;;;;;;7.40;2.80;;;26.40;58.70;;;;;;4999738;28;20030;-68
2021/08/20 09:01:38;;;;;;;12.23;2.85;;;26.60;59.20;;;;;;4999640;28;20026;-70
2021/08/20 09:04:11;;;;;;;5.13;2.80;;;26.80;58.10;;;;;;4999613;28;20037;-72
2021/08/20 09:06:42;;;;;;;10.77;2.75;;;26.80;56.80;;;;;;4982015;28;20085;-69
2021/08/20 09:09:09;;;;;;;15.85;3.05;;;;;;;;;;4999620;28;20117;-70
2021/08/20 09:11:35;;;;;;;3.80;2.10;;;27.30;57.60;;;;;;4999476;28;20081;-72
2021/08/20 09:14:01;;;;;;;7.10;2.53;;;27.40;57.70;;;;;;4999458;28;20037;-70
2021/08/20 09:16:40;;;;;;;14.13;2.88;;;27.50;57.20;;;;;;4982013;28;20121;-71
2021/08/20 09:19:12;;;;;;;5.10;2.00;;;27.60;55.90;;;;;;4999834;28;20121;-70
2021/08/20 09:21:39;;;;;;;8.73;3.35;;;27.50;55.00;;;;;;4998043;28;20027;-72
2021/08/20 09:24:30;;;;;;;4.25;2.63;;;27.90;56.50;;;;;;4978904;28;20038;-70
2021/08/20 09:27:25;;;;;;;10.95;1.92;;;27.90;54.00;;;;;;4996332;28;20467;-70
2021/08/20 09:29:55;;;;;;;2.53;2.00;;;28.10;55.60;;;;;;4995980;28;20057;-71
2021/08/20 09:32:22;;;;;;;4.43;2.20;;;28.20;52.90;;;;;;4996097;28;20463;-71
2021/08/20 09:34:52;;;;;;;3.15;1.58;;;28.20;54.10;;;;;;4996207;28;20030;-70
2021/08/20 09:37:20;;;;;;;3.60;1.67;;;28.30;54.60;;;;;;4978555;28;20042;-70
2021/08/20 09:39:46;;;;;;;2.38;1.75;;;28.50;54.10;;;;;;4996289;28;20034;-71
2021/08/20 09:42:15;;;;;;;3.08;1.80;;;28.70;53.20;;;;;;4995544;28;20033;-72
2021/08/20 09:44:41;;;;;;;7.90;1.90;;;28.80;52.40;;;;;;4995987;28;20022;-71
2021/08/20 09:47:07;;;;;;;5.65;2.08;;;29.00;51.70;;;;;;4995797;28;20029;-72
2021/08/20 09:49:55;;;;;;;3.08;1.50;;;29.20;52.10;;;;;;4996116;28;20034;-70
2021/08/20 09:52:29;;;;;;;5.03;1.65;;;29.40;51.80;;;;;;4995851;28;20037;-73
2021/08/20 09:54:56;;;;;;;5.75;1.77;;;29.50;51.70;;;;;;4995899;28;20494;-71
2021/08/20 09:57:26;;;;;;;17.10;2.50;;;29.50;50.40;;;;;;4978354;28;20367;-72
2021/08/20 09:59:57;;;;;;;5.13;1.70;;;29.50;51.80;;;;;;4995793;28;20053;-70
2021/08/20 10:02:28;;;;;;;2.10;1.90;;;29.70;50.80;;;;;;4996091;28;20029;-72
2021/08/20 10:04:55;;;;;;;;;;;29.60;50.10;;;;;;4978659;28;20196;-72
2021/08/20 10:07:21;;;;;;;4.47;1.83;;;29.70;50.20;;;;;;4995549;28;19906;-71
2021/08/20 10:09:48;;;;;;;2.15;1.92;;;29.70;47.60;;;;;;4977991;28;20026;-67
2021/08/20 10:12:19;;;;;;;2.15;1.92;;;29.90;49.80;;;;;;4995374;28;20038;-69
2021/08/20 10:14:46;;;;;;;4.50;2.03;;;29.90;49.40;;;;;;4995510;28;20030;-68
2021/08/20 10:17:16;;;;;;;3.20;1.90;;;29.70;50.00;;;;;;4977794;28;20022;-69
2021/08/20 10:19:43;;;;;;;9.98;2.10;;;29.90;49.90;;;;;;4995487;28;20081;-69
2021/08/20 10:22:10;;;;;;;1.98;1.67;;;30.20;50.50;;;;;;4995267;28;20026;-71
2021/08/20 10:24:37;;;;;;;4.65;1.75;;;30.30;50.00;;;;;;4995382;28;20030;-67
2021/08/20 10:27:05;;;;;;;6.13;2.42;;;30.50;49.70;;;;;;4995513;28;20290;-68
2021/08/20 10:29:37;;;;;;;32.80;3.60;;;30.80;50.10;;;;;;4977567;28;20093;-68
2021/08/20 10:32:06;;;;;;;2.78;1.80;;;31.40;50.10;;;;;;4995119;28;20296;-69
2021/08/20 10:34:37;;;;;;;1.92;1.40;;;31.90;48.50;;;;;;4994462;28;20026;-68
2021/08/20 10:37:11;;;;;;;5.60;2.10;;;32.50;47.20;;;;;;4995051;28;20093;-67
2021/08/20 10:39:40;;;;;;;2.10;1.77;;;33.30;47.00;;;;;;4995040;28;20077;-68
2021/08/20 10:42:11;;;;;;;3.05;1.60;;;33.50;45.50;;;;;;4994836;28;20038;-68
2021/08/20 10:44:41;;;;;;;;;;;33.70;45.70;;;;;;4977722;28;20550;-70
2021/08/20 10:47:08;;;;;;;2.10;1.88;;;34.10;45.00;;;;;;4977220;28;19910;-70
2021/08/20 10:49:41;;;;;;;2.28;1.90;;;;;;;;;;4977147;28;20026;-69
2021/08/20 10:52:07;;;;;;;2.13;1.85;;;34.80;45.00;;;;;;4994963;28;20034;-69
2021/08/20 10:54:37;;;;;;;3.28;2.22;;;34.40;44.50;;;;;;4994710;28;20034;-70
2021/08/20 10:57:04;;;;;;;30.60;2.53;;;32.90;44.00;;;;;;4994914;28;20407;-69
2021/08/20 10:59:36;;;;;;;2.92;2.10;;;32.20;44.40;;;;;;4994614;28;20080;-70
2021/08/20 11:02:20;;;;;;;3.22;1.92;;;31.80;45.90;;;;;;4994666;28;20029;-70
2021/08/20 11:05:07;;;;;;;2.33;2.10;;;31.80;45.40;;;;;;4977155;28;20030;-69
2021/08/20 11:07:39;;;;;;;4.38;1.80;;;31.90;46.40;;;;;;4977032;28;20129;-68
2021/08/20 11:10:07;;;;;;;2.08;1.67;;;34.10;44.50;;;;;;4976984;28;20026;-72
2021/08/20 11:12:52;;;;;;;2.67;1.80;;;35.70;41.80;;;;;;4994302;28;20053;-69
2021/08/20 11:15:21;;;;;;;7.70;2.55;;;37.20;41.20;;;;;;4994466;28;20037;-70
2021/08/20 11:17:51;;;;;;;3.92;1.90;;;38.00;40.10;;;;;;4994345;28;20034;-69
2021/08/20 11:20:23;;;;;;;5.72;1.95;;;39.00;38.70;;;;;;4994334;28;20506;-71
2021/08/20 11:23:11;;;;;;;2.25;1.80;;;39.30;38.40;;;;;;4994021;28;20403;-66
2021/08/20 11:25:53;;;;;;;4.05;2.20;;;39.20;37.10;;;;;;4994283;28;20522;-68
2021/08/20 11:28:32;;;;;;;3.50;1.80;;;40.00;37.90;;;;;;4976712;28;20054;-68
2021/08/20 11:31:06;;;;;;;4.35;1.75;;;40.50;38.00;;;;;;4976369;28;20050;-68
2021/08/20 11:33:43;;;;;;;2.70;1.98;;;40.70;37.50;;;;;;4993730;28;20510;-69
2021/08/20 11:36:17;;;;;;;3.03;1.70;;;40.70;37.50;;;;;;4976122;28;20030;-68
2021/08/20 11:38:52;;;;;;;5.43;1.98;;;41.10;36.90;;;;;;4994074;28;20109;-68
2021/08/20 11:41:27;;;;;;;1.85;1.60;;;41.80;36.60;;;;;;4976532;28;20117;-67
2021/08/20 11:43:56;;;;;;;2.22;2.05;;;42.20;35.90;;;;;;4976346;28;20034;-66
2021/08/20 11:46:24;;;;;;;5.72;1.75;;;42.50;35.30;;;;;;4993414;28;20026;-69
2021/08/20 11:48:53;;;;;;;2.05;1.52;;;42.70;33.90;;;;;;4976414;28;20356;-67
2021/08/20 11:51:25;;;;;;;1.92;1.83;;;42.00;34.70;;;;;;4993841;28;20064;-68
2021/08/20 11:53:51;;;;;;;1.92;1.60;;;42.00;35.60;;;;;;4993750;28;20045;-68
2021/08/20 11:56:17;;;;;;;2.45;1.73;;;41.30;35.10;;;;;;4994136;28;20030;-67
2021/08/20 11:58:44;;;;;;;1.77;1.63;;;41.70;34.80;;;;;;4993776;28;20458;-68
2021/08/20 12:01:13;;;;;;;5.57;1.80;;;42.50;35.30;;;;;;4993862;28;20113;-67
2021/08/20 12:03:57;;;;;;;1.90;1.80;;;43.30;34.70;;;;;;4976156;28;20034;-67
2021/08/20 12:06:24;;;;;;;3.22;1.80;;;43.40;34.20;;;;;;4993709;28;20069;-67
2021/08/20 12:08:52;;;;;;;3.10;1.80;;;43.70;33.80;;;;;;4993579;28;20128;-66
2021/08/20 12:11:22;;;;;;;3.67;1.73;;;44.40;33.90;;;;;;4993565;28;20062;-68
2021/08/20 12:13:53;;;;;;;2.72;1.67;;;43.90;33.70;;;;;;4993446;28;20030;-68
2021/08/20 12:16:49;;;;;;;5.00;1.80;;;44.20;33.30;;;;;;4976162;28;20034;-68
2021/08/20 12:19:27;;;;;;;1.70;1.60;;;43.70;33.00;;;;;;4993291;28;20395;-68
2021/08/20 12:21:57;;;;;;;5.35;1.90;;;44.50;33.20;;;;;;4976008;28;20057;-69
2021/08/20 12:24:41;;;;;;;3.70;1.75;;;44.80;32.50;;;;;;4976086;28;20042;-70
2021/08/20 12:27:19;;;;;;;4.85;1.90;;;44.70;32.50;;;;;;4993569;28;20113;-71
2021/08/20 12:30:00;;;;;;;1.98;1.77;;;45.30;33.10;;;;;;4993235;28;20127;-72
2021/08/20 12:32:28;;;;;;;1.88;1.77;;;45.90;32.30;;;;;;4993682;28;20121;-69
2021/08/20 12:34:59;;;;;;;3.75;2.08;;;44.80;32.70;;;;;;4993306;28;20036;-71
2021/08/20 12:37:26;;;;;;;4.07;1.98;;;45.30;33.00;;;;;;4975947;28;20041;-71
2021/08/20 12:40:09;;;;;;;5.22;1.88;;;45.10;32.50;;;;;;4993715;28;20034;-70
2021/08/20 12:42:50;;;;;;;3.17;1.75;;;45.70;32.90;;;;;;4975863;28;20069;-71
2021/08/20 12:45:21;;;;;;;2.78;1.95;;;46.10;32.80;;;;;;4975798;28;20034;-70
2021/08/20 12:48:00;;;;;;;8.55;2.17;;;46.20;32.40;;;;;;4975870;28;20387;-71
2021/08/20 12:50:26;;;;;;;3.10;1.67;;;46.40;32.70;;;;;;4992040;28;20105;-73
2021/08/20 12:53:07;;;;;;;4.03;2.00;;;46.60;31.80;;;;;;4993545;28;20134;-71
2021/08/20 12:55:33;;;;;;;3.55;1.70;;;46.80;31.60;;;;;;4956410;28;20118;-73
2021/08/20 12:58:00;;;;;;;5.13;1.80;;;;;;;;;;4977484;28;20113;-73
2021/08/20 13:00:31;;;;;;;1.70;1.60;;;47.10;31.90;;;;;;4959777;28;20027;-70
2021/08/20 13:03:01;;;;;;;1.90;1.70;;;47.40;31.10;;;;;;4977451;28;20031;-74
2021/08/20 13:05:27;;;;;;;1.77;1.55;;;47.60;30.80;;;;;;4976863;28;20039;-71